SDM6168 ULLI-UUEE
Flight info
| Callsign | SDM6168 |
|---|---|
| Flight time | N/A |
| Altitude | 37000 |
| Route | SUGIN1C SUGIN T873 NIRGI T73 NAMIN NAMIN3E |
| Aircraft | A319/M-SDE3FGHIRWY/LB1 |
Departure
| Time | 2026-05-07 17:53 |
|---|---|
| Airport | Pulkovo Airport (ULLI) |
Arrival
| Time | N/A |
|---|---|
| Airport | Sheremetyevo International Airport (UUEE) |
| Time | Latitude | Longitude | Altitude | Speed | Heading |
|---|---|---|---|---|---|
| 2026-05-07 17:29 | 59.80195 | 30.27478 | 80 ft | 0 kts | 196° |
| 2026-05-07 17:41 | 59.80203 | 30.27482 | 80 ft | 2 kts | 184° |
| 2026-05-07 17:42 | 59.80218 | 30.27479 | 80 ft | 2 kts | 163° |
| 2026-05-07 17:42 | 59.80232 | 30.27466 | 79 ft | 2 kts | 142° |
| 2026-05-07 17:42 | 59.80242 | 30.27445 | 79 ft | 2 kts | 122° |
| 2026-05-07 17:42 | 59.80248 | 30.27418 | 79 ft | 1 kts | 103° |
| 2026-05-07 17:43 | 59.80249 | 30.27411 | 79 ft | 0 kts | 103° |
| 2026-05-07 17:46 | 59.80248 | 30.27415 | 79 ft | 1 kts | 104° |
| 2026-05-07 17:46 | 59.80242 | 30.27456 | 79 ft | 5 kts | 105° |
| 2026-05-07 17:47 | 59.80228 | 30.27551 | 79 ft | 9 kts | 106° |
| 2026-05-07 17:47 | 59.80207 | 30.27694 | 79 ft | 12 kts | 106° |
| 2026-05-07 17:47 | 59.80178 | 30.27888 | 77 ft | 15 kts | 106° |
| 2026-05-07 17:47 | 59.80154 | 30.28054 | 76 ft | 7 kts | 102° |
| 2026-05-07 17:48 | 59.80197 | 30.28124 | 74 ft | 11 kts | 338° |
| 2026-05-07 17:48 | 59.80229 | 30.27986 | 76 ft | 10 kts | 286° |
| 2026-05-07 17:48 | 59.80252 | 30.27834 | 76 ft | 12 kts | 287° |
| 2026-05-07 17:48 | 59.80275 | 30.27680 | 78 ft | 10 kts | 286° |
| 2026-05-07 17:49 | 59.80298 | 30.27529 | 78 ft | 12 kts | 286° |
| 2026-05-07 17:49 | 59.80322 | 30.27360 | 78 ft | 13 kts | 286° |
| 2026-05-07 17:49 | 59.80347 | 30.27187 | 80 ft | 12 kts | 286° |
| 2026-05-07 17:49 | 59.80373 | 30.27021 | 80 ft | 13 kts | 286° |
| 2026-05-07 17:50 | 59.80399 | 30.26838 | 79 ft | 14 kts | 286° |
| 2026-05-07 17:50 | 59.80424 | 30.26674 | 79 ft | 11 kts | 286° |
| 2026-05-07 17:50 | 59.80443 | 30.26588 | 78 ft | 6 kts | 319° |
| 2026-05-07 17:50 | 59.80494 | 30.26579 | 77 ft | 9 kts | 15° |
| 2026-05-07 17:51 | 59.80535 | 30.26604 | 77 ft | 2 kts | 17° |
| 2026-05-07 17:51 | 59.80541 | 30.26607 | 76 ft | 1 kts | 17° |
| 2026-05-07 17:51 | 59.80563 | 30.26620 | 76 ft | 5 kts | 17° |
| 2026-05-07 17:51 | 59.80616 | 30.26652 | 75 ft | 9 kts | 11° |
| 2026-05-07 17:52 | 59.80651 | 30.26686 | 74 ft | 6 kts | 76° |
| 2026-05-07 17:52 | 59.80647 | 30.26729 | 74 ft | 0 kts | 107° |
| 2026-05-07 17:52 | 59.80605 | 30.27010 | 75 ft | 58 kts | 107° |
| 2026-05-07 17:52 | 59.80416 | 30.28290 | 71 ft | 132 kts | 106° |
| 2026-05-07 17:53 | 59.80131 | 30.30265 | 439 ft | 156 kts | 105° |
| 2026-05-07 17:53 | 59.79845 | 30.32294 | 1229 ft | 154 kts | 106° |
| 2026-05-07 17:53 | 59.79552 | 30.34275 | 2012 ft | 152 kts | 105° |
| 2026-05-07 17:53 | 59.79260 | 30.36127 | 2704 ft | 150 kts | 108° |
| 2026-05-07 17:54 | 59.78934 | 30.38207 | 3120 ft | 165 kts | 107° |
| 2026-05-07 17:54 | 59.78588 | 30.40502 | 3516 ft | 183 kts | 108° |
| 2026-05-07 17:54 | 59.78202 | 30.43049 | 3880 ft | 205 kts | 108° |
| 2026-05-07 17:54 | 59.77768 | 30.45892 | 4336 ft | 225 kts | 107° |
| 2026-05-07 17:55 | 59.77305 | 30.48985 | 4836 ft | 244 kts | 108° |
| 2026-05-07 17:55 | 59.76804 | 30.52278 | 5458 ft | 257 kts | 108° |
| 2026-05-07 17:55 | 59.76291 | 30.55701 | 6280 ft | 262 kts | 109° |
| 2026-05-07 17:55 | 59.75776 | 30.59178 | 7099 ft | 268 kts | 109° |
| 2026-05-07 17:56 | 59.75269 | 30.62706 | 7982 ft | 270 kts | 109° |
| 2026-05-07 17:56 | 59.74749 | 30.66359 | 8748 ft | 278 kts | 110° |
| 2026-05-07 17:56 | 59.74221 | 30.70067 | 9530 ft | 284 kts | 110° |
| 2026-05-07 17:56 | 59.73673 | 30.73894 | 10309 ft | 292 kts | 110° |
| 2026-05-07 17:57 | 59.73104 | 30.77834 | 10818 ft | 308 kts | 110° |
| 2026-05-07 17:57 | 59.72701 | 30.80604 | 11096 ft | 321 kts | 110° |
| 2026-05-07 17:57 | 59.71858 | 30.86414 | 11858 ft | 337 kts | 109° |
| 2026-05-07 17:57 | 59.71207 | 30.90911 | 12586 ft | 344 kts | 109° |
| 2026-05-07 17:58 | 59.70550 | 30.95447 | 13331 ft | 348 kts | 109° |
| 2026-05-07 17:58 | 59.69874 | 31.00097 | 14072 ft | 353 kts | 108° |